createdAt,value
2019-04-07T00:00:48.625Z,88.67
2019-04-07T00:03:18.491Z,93.47
2019-04-07T00:05:48.188Z,88.53
2019-04-07T00:08:17.833Z,91.23
2019-04-07T00:10:47.044Z,92.97
2019-04-07T00:13:16.231Z,96.00
2019-04-07T00:15:45.509Z,97.77
2019-04-07T00:18:14.715Z,101.97
2019-04-07T00:20:43.913Z,101.17
2019-04-07T00:23:13.176Z,105.03
2019-04-07T00:25:42.971Z,92.87
2019-04-07T00:28:12.190Z,97.40
2019-04-07T00:30:41.355Z,99.77
2019-04-07T00:33:11.277Z,100.30
2019-04-07T00:35:40.572Z,93.30
2019-04-07T00:38:09.791Z,99.97
2019-04-07T00:40:39.180Z,95.57
2019-04-07T00:43:08.788Z,102.30
2019-04-07T00:45:38.023Z,96.37
2019-04-07T00:48:07.732Z,93.97
2019-04-07T00:50:39.343Z,93.23
2019-04-07T00:53:08.851Z,98.03
2019-04-07T00:55:38.585Z,96.63
2019-04-07T00:58:08.293Z,99.87
2019-04-07T01:00:39.991Z,94.13
2019-04-07T01:03:09.505Z,99.10
2019-04-07T01:05:41.423Z,98.13
2019-04-07T01:08:09.715Z,92.17
2019-04-07T01:10:39.071Z,93.53
2019-04-07T01:13:08.569Z,96.33
2019-04-07T01:15:38.382Z,95.90
2019-04-07T01:18:07.832Z,98.03
2019-04-07T01:20:36.976Z,98.80
2019-04-07T01:23:06.185Z,91.27
2019-04-07T01:25:35.753Z,98.97
2019-04-07T01:28:05.474Z,95.87
2019-04-07T01:30:34.955Z,99.23
2019-04-07T01:33:05.336Z,99.07
2019-04-07T01:35:45.059Z,98.63
2019-04-07T01:38:05.980Z,96.43
2019-04-07T01:40:35.406Z,102.97
2019-04-07T01:43:06.482Z,98.80
2019-04-07T01:45:46.561Z,90.87
2019-04-07T01:48:17.303Z,96.67
2019-04-07T01:50:51.797Z,104.57
2019-04-07T01:53:22.879Z,96.57
2019-04-07T01:56:06.469Z,98.63
2019-04-07T01:58:52.452Z,104.33
2019-04-07T02:01:32.696Z,105.03
2019-04-07T02:04:19.548Z,92.40
2019-04-07T02:07:07.319Z,100.57
2019-04-07T02:09:54.561Z,105.27
2019-04-07T02:12:42.328Z,103.30
2019-04-07T02:15:13.896Z,104.87
2019-04-07T02:17:45.504Z,104.20
2019-04-07T02:20:56.779Z,96.30
2019-04-07T02:23:37.163Z,109.87
2019-04-07T02:26:08.209Z,104.57
2019-04-07T02:28:38.989Z,97.37
2019-04-07T02:31:26.144Z,105.20
2019-04-07T02:34:03.194Z,110.83
2019-04-07T02:36:37.580Z,105.60
2019-04-07T02:39:21.505Z,97.17
2019-04-07T02:42:08.835Z,105.03
2019-04-07T02:44:39.702Z,105.90
2019-04-07T02:47:10.720Z,100.00
2019-04-07T02:49:44.396Z,103.47
2019-04-07T02:52:28.096Z,96.73
2019-04-07T02:55:02.551Z,103.90
2019-04-07T02:57:47.818Z,111.43
2019-04-07T03:00:34.295Z,107.83
2019-04-07T03:03:05.458Z,106.37
2019-04-07T03:05:36.437Z,106.83
2019-04-07T03:08:10.280Z,112.13
2019-04-07T03:10:47.367Z,110.23
2019-04-07T03:13:18.262Z,100.43
2019-04-07T03:15:49.100Z,112.33
2019-04-07T03:18:24.235Z,107.57
2019-04-07T03:21:01.192Z,99.80
2019-04-07T03:23:48.641Z,102.63
2019-04-07T03:26:36.429Z,100.17
2019-04-07T03:29:07.310Z,104.87
2019-04-07T03:31:38.853Z,106.27
2019-04-07T03:34:24.100Z,102.47
2019-04-07T03:37:25.994Z,106.90
2019-04-07T03:39:33.346Z,112.53
2019-04-07T03:42:10.714Z,105.33
2019-04-07T03:44:41.925Z,99.83
2019-04-07T03:47:16.470Z,103.77
2019-04-07T03:49:47.764Z,100.00
2019-04-07T03:52:36.864Z,107.57
2019-04-07T03:55:09.288Z,107.40
2019-04-07T03:57:40.903Z,107.73
2019-04-07T04:00:43.683Z,99.47
2019-04-07T04:03:14.787Z,101.70
2019-04-07T04:05:52.178Z,104.50
2019-04-07T04:08:24.638Z,108.67
2019-04-07T04:11:01.730Z,103.27
2019-04-07T04:13:45.776Z,103.23
2019-04-07T04:16:14.986Z,109.30
2019-04-07T04:18:44.729Z,106.10
2019-04-07T04:21:13.937Z,104.03
2019-04-07T04:23:44.549Z,99.80
2019-04-07T04:26:13.892Z,104.10
2019-04-07T04:28:44.200Z,107.70
2019-04-07T04:31:14.080Z,99.50
2019-04-07T04:33:44.308Z,109.17
2019-04-07T04:36:13.645Z,99.97
2019-04-07T04:38:43.057Z,102.43
2019-04-07T04:41:13.211Z,100.67
2019-04-07T04:43:42.420Z,105.50
2019-04-07T04:46:12.732Z,106.33
2019-04-07T04:48:43.003Z,104.97
2019-04-07T04:51:13.060Z,99.77
2019-04-07T04:53:42.465Z,101.40
2019-04-07T04:56:11.631Z,101.53
2019-04-07T04:58:40.830Z,103.53
2019-04-07T05:01:10.654Z,98.97
2019-04-07T05:03:40.546Z,97.23
2019-04-07T05:06:10.210Z,102.20
2019-04-07T05:08:39.449Z,104.83
2019-04-07T05:11:09.141Z,100.53
2019-04-07T05:13:38.537Z,100.97
2019-04-07T05:16:08.285Z,105.07
2019-04-07T05:18:38.200Z,99.00
2019-04-07T05:21:07.516Z,96.97
2019-04-07T05:23:36.709Z,103.13
2019-04-07T05:26:05.896Z,94.30
2019-04-07T05:28:37.047Z,99.17
2019-04-07T05:31:07.229Z,94.50
2019-04-07T05:33:36.773Z,94.90
2019-04-07T05:36:06.004Z,92.33
2019-04-07T05:38:35.699Z,94.20
2019-04-07T05:41:05.429Z,96.57
2019-04-07T05:43:35.456Z,94.30
2019-04-07T05:46:07.091Z,90.17
2019-04-07T05:48:35.638Z,89.90
2019-04-07T05:51:05.551Z,94.63
2019-04-07T05:53:34.939Z,94.37
2019-04-07T05:56:04.362Z,97.70
2019-04-07T05:58:37.459Z,91.27
2019-04-07T06:01:05.201Z,89.30
2019-04-07T06:03:38.620Z,91.43
2019-04-07T06:06:05.441Z,93.77
2019-04-07T06:08:38.696Z,90.13
2019-04-07T06:11:06.201Z,92.57
2019-04-07T06:13:37.999Z,89.57
2019-04-07T06:16:07.989Z,87.10
2019-04-07T06:18:37.868Z,87.20
2019-04-07T06:21:07.745Z,86.27
2019-04-07T06:23:37.555Z,91.07
2019-04-07T06:26:11.183Z,83.20
2019-04-07T06:28:38.137Z,85.43
2019-04-07T06:31:08.243Z,86.50
2019-04-07T06:33:38.628Z,81.63
2019-04-07T06:36:08.362Z,82.50
2019-04-07T06:38:41.547Z,87.93
2019-04-07T06:41:09.441Z,81.70
2019-04-07T06:43:40.144Z,81.40
2019-04-07T06:46:17.594Z,88.10
2019-04-07T06:49:04.545Z,85.50
2019-04-07T06:51:35.629Z,75.53
2019-04-07T06:54:06.901Z,83.00
2019-04-07T06:56:41.096Z,84.47
2019-04-07T06:59:24.052Z,82.00
2019-04-07T07:02:10.037Z,75.30
2019-04-07T07:04:43.558Z,77.03
2019-04-07T07:07:19.941Z,78.13
2019-04-07T07:09:59.842Z,69.73
2019-04-07T07:12:34.972Z,72.97
2019-04-07T07:15:08.019Z,67.63
2019-04-07T07:17:38.876Z,65.27
2019-04-07T07:20:28.695Z,67.87
2019-04-07T07:23:01.319Z,68.17
2019-04-07T07:25:32.150Z,64.00
2019-04-07T07:28:01.685Z,64.50
2019-04-07T07:30:31.550Z,65.57
2019-04-07T07:33:00.808Z,61.00
2019-04-07T07:35:30.025Z,61.30
2019-04-07T07:37:59.766Z,59.07
2019-04-07T07:40:29.895Z,61.20
2019-04-07T07:42:59.576Z,58.10
2019-04-07T07:45:28.876Z,56.17
2019-04-07T07:47:58.104Z,61.10
2019-04-07T07:50:28.377Z,59.53
2019-04-07T07:52:58.201Z,65.47
2019-04-07T07:55:28.528Z,59.47
2019-04-07T07:57:59.342Z,56.80
2019-04-07T08:00:28.642Z,55.40
2019-04-07T08:02:58.228Z,60.50
2019-04-07T08:05:32.279Z,49.97
2019-04-07T08:07:59.352Z,56.20
2019-04-07T08:10:29.053Z,52.93
2019-04-07T08:12:58.574Z,50.93
2019-04-07T08:15:31.963Z,51.23
2019-04-07T08:18:03.175Z,53.40
2019-04-07T08:20:29.793Z,54.63
2019-04-07T08:22:59.329Z,50.80
2019-04-07T08:25:29.172Z,54.33
2019-04-07T08:28:02.163Z,51.03
2019-04-07T08:30:29.321Z,47.47
2019-04-07T08:33:00.278Z,50.20
2019-04-07T08:35:30.883Z,51.60
2019-04-07T08:38:00.926Z,49.10
2019-04-07T08:40:30.907Z,50.60
2019-04-07T08:43:00.467Z,52.07
2019-04-07T08:45:32.729Z,54.27
2019-04-07T08:48:01.969Z,50.93
2019-04-07T08:50:31.175Z,53.53
2019-04-07T08:53:00.360Z,53.17
2019-04-07T08:55:29.915Z,53.80
2019-04-07T08:58:02.218Z,53.50
2019-04-07T09:00:33.607Z,50.67
2019-04-07T09:03:08.282Z,50.60
2019-04-07T09:05:35.448Z,60.03
2019-04-07T09:08:06.023Z,57.90
2019-04-07T09:10:41.016Z,59.83
2019-04-07T09:13:10.455Z,55.53
2019-04-07T09:15:53.404Z,59.23
2019-04-07T09:18:24.457Z,54.87
2019-04-07T09:20:56.053Z,57.47
2019-04-07T09:23:42.574Z,57.23
2019-04-07T09:26:17.180Z,56.63
2019-04-07T09:29:05.114Z,52.40
2019-04-07T09:31:44.914Z,55.50
2019-04-07T09:34:34.540Z,54.87
2019-04-07T09:37:07.867Z,58.47
2019-04-07T09:40:01.109Z,51.00
2019-04-07T09:42:46.653Z,53.90
2019-04-07T09:45:21.300Z,53.67
2019-04-07T09:48:04.082Z,53.23
2019-04-07T09:50:38.586Z,54.93
2019-04-07T09:53:25.789Z,51.10
2019-04-07T09:55:59.744Z,53.40
2019-04-07T09:58:47.036Z,52.17
2019-04-07T10:01:27.820Z,54.40
2019-04-07T10:03:59.349Z,53.77
2019-04-07T10:06:42.224Z,56.80
2019-04-07T10:09:17.169Z,53.17
2019-04-07T10:11:49.380Z,53.93
2019-04-07T10:14:23.100Z,54.63
2019-04-07T10:16:54.586Z,51.00
2019-04-07T10:19:28.245Z,47.70
2019-04-07T10:22:02.629Z,45.83
2019-04-07T10:24:34.644Z,45.13
2019-04-07T10:27:22.397Z,44.73
2019-04-07T10:29:53.328Z,44.23
2019-04-07T10:32:32.785Z,46.73
2019-04-07T10:35:12.629Z,47.53
2019-04-07T10:37:55.386Z,46.67
2019-04-07T10:40:35.174Z,47.57
2019-04-07T10:43:22.832Z,49.90
2019-04-07T10:46:00.295Z,42.40
2019-04-07T10:48:34.250Z,44.00
2019-04-07T10:51:07.961Z,45.73
2019-04-07T10:53:54.871Z,44.70
2019-04-07T10:56:40.575Z,36.40
2019-04-07T10:59:17.486Z,36.63
2019-04-07T11:01:49.094Z,41.53
2019-04-07T11:04:35.151Z,38.73
2019-04-07T11:07:11.764Z,37.97
2019-04-07T11:09:52.080Z,37.70
2019-04-07T11:12:25.085Z,37.13
2019-04-07T11:15:12.559Z,35.43
2019-04-07T11:17:43.661Z,38.43
2019-04-07T11:20:17.096Z,40.00
2019-04-07T11:22:50.590Z,41.67
2019-04-07T11:25:38.466Z,37.23
2019-04-07T11:28:12.264Z,40.53
2019-04-07T11:30:52.113Z,35.47
2019-04-07T11:33:23.161Z,34.33
2019-04-07T11:35:54.009Z,34.57
2019-04-07T11:38:25.761Z,34.47
2019-04-07T11:41:12.816Z,31.87
2019-04-07T11:43:44.289Z,28.10
2019-04-07T11:46:24.492Z,28.67
2019-04-07T11:49:02.436Z,29.47
2019-04-07T11:51:42.530Z,29.67
2019-04-07T11:54:28.458Z,32.60
2019-04-07T11:56:59.301Z,31.77
2019-04-07T11:59:39.353Z,28.97
2019-04-07T12:02:10.686Z,28.57
2019-04-07T12:04:44.382Z,23.30
2019-04-07T12:07:19.245Z,25.27
2019-04-07T12:09:54.239Z,22.03
2019-04-07T12:12:25.111Z,22.93
2019-04-07T12:15:05.251Z,23.10
2019-04-07T12:20:46.117Z,22.53
2019-04-07T12:23:33.724Z,20.40
2019-04-07T12:26:20.390Z,22.37
2019-04-07T12:29:07.972Z,22.40
2019-04-07T12:31:59.800Z,23.20
2019-04-07T12:35:07.428Z,25.23
2019-04-07T12:37:53.263Z,24.83
2019-04-07T12:40:30.669Z,21.67
2019-04-07T12:43:29.128Z,21.30
2019-04-07T12:46:16.721Z,23.53
2019-04-07T12:48:48.003Z,23.80
2019-04-07T12:51:35.231Z,19.93
2019-04-07T12:54:23.302Z,20.70
2019-04-07T12:56:54.729Z,23.97
2019-04-07T12:59:39.214Z,20.03
2019-04-07T13:02:09.993Z,19.87
2019-04-07T13:04:44.598Z,18.17
2019-04-07T13:07:20.414Z,17.30
2019-04-07T13:09:53.833Z,17.00
2019-04-07T13:12:30.520Z,18.00
2019-04-07T13:15:16.559Z,16.47
2019-04-07T13:17:50.640Z,16.67
2019-04-07T13:20:40.774Z,16.57
2019-04-07T13:23:14.494Z,20.33
2019-04-07T13:25:55.016Z,18.00
2019-04-07T13:28:40.152Z,16.77
2019-04-07T13:31:11.311Z,19.97
2019-04-07T13:33:42.102Z,18.20
2019-04-07T13:36:16.013Z,18.87
2019-04-07T13:38:50.157Z,17.07
2019-04-07T13:41:38.646Z,19.23
2019-04-07T13:44:07.104Z,19.10
2019-04-07T13:46:37.532Z,20.77
2019-04-07T13:49:17.162Z,20.33
2019-04-07T13:51:51.363Z,18.17
2019-04-07T13:54:25.368Z,19.53
2019-04-07T13:56:59.037Z,24.87
2019-04-07T13:59:44.875Z,21.33
2019-04-07T14:02:26.387Z,20.30
2019-04-07T14:05:07.574Z,18.93
2019-04-07T14:07:37.239Z,17.67
2019-04-07T14:10:25.606Z,21.30
2019-04-07T14:12:56.510Z,16.27
2019-04-07T14:15:28.061Z,20.30
2019-04-07T14:18:15.560Z,15.20
2019-04-07T14:21:03.066Z,18.73
2019-04-07T14:23:40.006Z,19.13
2019-04-07T14:26:23.318Z,14.93
2019-04-07T14:29:03.131Z,15.93
2019-04-07T14:31:43.273Z,18.37
2019-04-07T14:34:29.351Z,15.60
2019-04-07T14:37:18.657Z,15.77
2019-04-07T14:39:55.397Z,16.27
2019-04-07T14:42:26.374Z,15.33
2019-04-07T14:45:06.686Z,18.13
2019-04-07T14:47:40.045Z,16.57
2019-04-07T14:50:12.094Z,18.43
2019-04-07T14:52:47.109Z,24.43
2019-04-07T14:55:24.657Z,16.27
2019-04-07T14:58:01.732Z,16.63
2019-04-07T15:00:32.661Z,15.23
2019-04-07T15:03:02.099Z,17.27
2019-04-07T15:05:33.109Z,23.03
2019-04-07T15:08:04.410Z,16.17
2019-04-07T15:10:36.170Z,20.30
2019-04-07T15:13:07.066Z,14.90
2019-04-07T15:15:36.867Z,16.53
2019-04-07T15:18:06.031Z,17.77
2019-04-07T15:20:35.223Z,17.30
2019-04-07T15:23:05.453Z,16.40
2019-04-07T15:25:35.492Z,16.53
2019-04-07T15:28:04.820Z,16.13
2019-04-07T15:30:34.079Z,18.60
2019-04-07T15:33:04.171Z,17.00
2019-04-07T15:35:35.245Z,15.30
2019-04-07T15:38:05.325Z,17.90
2019-04-07T15:40:36.247Z,16.07
2019-04-07T15:43:08.672Z,17.13
2019-04-07T15:45:36.858Z,19.43
2019-04-07T15:48:06.059Z,15.73
2019-04-07T15:50:35.472Z,15.73
2019-04-07T15:53:04.639Z,16.60
2019-04-07T15:55:45.820Z,16.67
2019-04-07T15:58:04.997Z,17.17
2019-04-07T16:00:35.257Z,16.97
2019-04-07T16:03:05.414Z,19.23
2019-04-07T16:05:40.371Z,19.30
2019-04-07T16:08:06.309Z,17.07
2019-04-07T16:10:35.976Z,16.00
2019-04-07T16:13:05.396Z,18.07
2019-04-07T16:15:35.033Z,18.43
2019-04-07T16:18:14.635Z,23.97
2019-04-07T16:20:51.316Z,17.13
2019-04-07T16:23:30.575Z,17.43
2019-04-07T16:26:10.697Z,21.93
2019-04-07T16:29:00.108Z,20.23
2019-04-07T16:31:25.663Z,19.33
2019-04-07T16:34:05.829Z,18.80
2019-04-07T16:36:35.561Z,16.90
2019-04-07T16:39:09.334Z,17.90
2019-04-07T16:41:39.256Z,19.40
2019-04-07T16:44:10.575Z,17.57
2019-04-07T16:46:39.599Z,19.33
2019-04-07T16:49:11.519Z,18.30
2019-04-07T16:51:40.451Z,18.80
2019-04-07T16:54:10.424Z,17.20
2019-04-07T16:56:41.405Z,16.63
2019-04-07T16:59:10.714Z,18.70
2019-04-07T17:01:39.998Z,17.47
2019-04-07T17:04:09.454Z,18.00
2019-04-07T17:06:39.073Z,17.17
2019-04-07T17:09:17.778Z,19.67
2019-04-07T17:11:47.629Z,19.73
2019-04-07T17:14:16.970Z,16.97
2019-04-07T17:16:46.182Z,17.73
2019-04-07T17:19:16.187Z,20.50
2019-04-07T17:21:45.537Z,18.53
2019-04-07T17:24:14.746Z,20.13
2019-04-07T17:26:43.970Z,17.10
2019-04-07T17:29:17.075Z,16.67
2019-04-07T17:31:44.440Z,17.60
2019-04-07T17:34:14.483Z,15.97
2019-04-07T17:36:48.478Z,17.50
2019-04-07T17:39:17.076Z,17.17
2019-04-07T17:41:49.909Z,17.37
2019-04-07T17:44:22.072Z,18.23
2019-04-07T17:46:58.487Z,16.23
2019-04-07T17:49:43.072Z,17.07
2019-04-07T17:52:30.044Z,17.50
2019-04-07T17:55:17.572Z,16.37
2019-04-07T17:57:48.441Z,16.63
2019-04-07T18:00:36.219Z,18.20
2019-04-07T18:03:19.514Z,19.67
2019-04-07T18:06:02.093Z,15.93
2019-04-07T18:08:49.590Z,17.10
2019-04-07T18:11:20.439Z,18.47
2019-04-07T18:14:07.792Z,18.70
2019-04-07T18:16:44.739Z,15.47
2019-04-07T18:19:18.663Z,17.67
2019-04-07T18:22:02.270Z,18.30
2019-04-07T18:24:45.059Z,15.43
2019-04-07T18:27:18.351Z,19.27
2019-04-07T18:29:49.170Z,16.20
2019-04-07T18:32:31.895Z,20.13
2019-04-07T18:35:19.489Z,17.03
2019-04-07T18:38:08.980Z,20.13
2019-04-07T18:40:58.354Z,18.23
2019-04-07T18:43:27.802Z,18.23
2019-04-07T18:45:58.996Z,16.97
2019-04-07T18:48:36.047Z,19.87
2019-04-07T18:51:16.021Z,18.67
2019-04-07T18:53:47.506Z,17.73
2019-04-07T18:56:22.598Z,19.77
2019-04-07T18:58:56.404Z,18.10
2019-04-07T19:01:45.648Z,22.73
2019-04-07T19:04:17.318Z,19.33
2019-04-07T19:06:53.863Z,20.43
2019-04-07T19:09:29.853Z,18.23
2019-04-07T19:12:20.092Z,18.37
2019-04-07T19:15:06.959Z,17.60
2019-04-07T19:17:43.141Z,18.40
2019-04-07T19:20:30.599Z,17.90
2019-04-07T19:23:04.419Z,19.57
2019-04-07T19:25:44.436Z,17.90
2019-04-07T19:28:34.077Z,21.33
2019-04-07T19:31:08.666Z,17.70
2019-04-07T19:33:57.894Z,20.40
2019-04-07T19:36:28.054Z,17.00
2019-04-07T19:39:21.395Z,17.70
2019-04-07T19:42:04.604Z,20.80
2019-04-07T19:44:37.105Z,18.70
2019-04-07T19:47:14.173Z,19.13
2019-04-07T19:49:50.182Z,19.07
2019-04-07T19:52:38.374Z,22.37
2019-04-07T19:55:09.999Z,18.27
2019-04-07T19:57:58.013Z,20.00
2019-04-07T20:00:35.677Z,18.03
2019-04-07T20:03:24.180Z,20.97
2019-04-07T20:05:56.121Z,21.30
2019-04-07T20:08:34.910Z,18.23
2019-04-07T20:11:11.796Z,19.90
2019-04-07T20:13:46.592Z,19.90
2019-04-07T20:16:33.701Z,18.83
2019-04-07T20:19:13.773Z,17.73
2019-04-07T20:21:54.785Z,21.77
2019-04-07T20:24:23.875Z,19.37
2019-04-07T20:27:03.720Z,18.57
2019-04-07T20:29:41.374Z,18.70
2019-04-07T20:32:10.968Z,17.17
2019-04-07T20:34:48.367Z,16.47
2019-04-07T20:37:23.492Z,17.87
2019-04-07T20:40:06.787Z,17.67
2019-04-07T20:42:40.450Z,16.70
2019-04-07T20:45:24.551Z,18.33
2019-04-07T20:48:00.166Z,21.80
2019-04-07T20:50:49.949Z,15.20
2019-04-07T20:53:23.974Z,17.17
2019-04-07T20:56:12.935Z,15.50
2019-04-07T20:58:54.917Z,19.17
2019-04-07T21:01:22.193Z,15.27
2019-04-07T21:03:52.991Z,18.73
2019-04-07T21:06:42.180Z,16.30
2019-04-07T21:09:33.370Z,17.03
2019-04-07T21:12:21.184Z,18.00
2019-04-07T21:14:52.042Z,15.57
2019-04-07T21:17:30.394Z,17.47
2019-04-07T21:20:18.123Z,15.73
2019-04-07T21:23:01.115Z,16.87
2019-04-07T21:25:31.953Z,15.17
2019-04-07T21:28:12.653Z,20.73
2019-04-07T21:30:46.315Z,16.53
2019-04-07T21:33:23.797Z,19.43
2019-04-07T21:35:58.963Z,17.23
2019-04-07T21:38:45.417Z,17.23
2019-04-07T21:41:32.774Z,16.67
2019-04-07T21:44:15.555Z,18.30
2019-04-07T21:47:11.995Z,17.30
2019-04-07T21:49:53.737Z,17.97
2019-04-07T21:53:04.463Z,19.43
2019-04-07T21:55:43.354Z,15.53
2019-04-07T21:58:30.425Z,14.00
2019-04-07T22:01:08.273Z,16.70
2019-04-07T22:03:46.180Z,14.00
2019-04-07T22:06:17.740Z,15.73
2019-04-07T22:08:56.318Z,14.53
2019-04-07T22:11:28.979Z,19.10
2019-04-07T22:13:57.467Z,15.83
2019-04-07T22:16:30.564Z,16.97
2019-04-07T22:19:20.195Z,16.53
2019-04-07T22:21:53.294Z,16.37
2019-04-07T22:24:20.731Z,15.13
2019-04-07T22:26:50.559Z,18.87
2019-04-07T22:29:20.576Z,14.07
2019-04-07T22:31:51.569Z,16.53
2019-04-07T22:34:20.920Z,16.80
2019-04-07T22:36:50.162Z,18.23
2019-04-07T22:39:19.346Z,14.53
2019-04-07T22:41:48.624Z,15.30
2019-04-07T22:44:19.868Z,15.30
2019-04-07T22:46:51.933Z,16.63
2019-04-07T22:49:19.876Z,16.13
2019-04-07T22:51:49.809Z,14.87
2019-04-07T22:54:19.872Z,14.30
2019-04-07T22:56:49.093Z,14.57
2019-04-07T22:59:18.370Z,17.37
2019-04-07T23:01:47.623Z,16.03
2019-04-07T23:04:16.821Z,16.80
2019-04-07T23:06:46.021Z,16.27
2019-04-07T23:09:15.548Z,16.90
2019-04-07T23:11:44.824Z,13.97
2019-04-07T23:14:13.998Z,21.50
2019-04-07T23:16:43.194Z,16.03
2019-04-07T23:19:12.469Z,17.50
2019-04-07T23:21:41.854Z,19.00
2019-04-07T23:24:11.218Z,17.13
2019-04-07T23:26:40.532Z,20.77
2019-04-07T23:29:10.054Z,16.70
2019-04-07T23:31:40.439Z,16.17
2019-04-07T23:34:10.563Z,17.40
2019-04-07T23:36:39.820Z,14.83
2019-04-07T23:39:09.864Z,17.07
2019-04-07T23:41:39.711Z,16.97
2019-04-07T23:44:09.423Z,15.63
2019-04-07T23:46:39.372Z,15.47
2019-04-07T23:49:08.524Z,17.30
2019-04-07T23:51:37.733Z,16.53
2019-04-07T23:54:09.138Z,17.53
2019-04-07T23:56:40.199Z,19.77
2019-04-07T23:59:10.389Z,15.80
